NC91 weather

Vidant Health Heliport
Greenville, North Carolina, United States

Public forecast

Using degrees Fahrenheit for public forecast. Weather courtesy of forecast.io.

Closest aviation weather report (METAR) to Vidant Health Heliport

Closest report is Pitt Greenville Airport, 1.9 nm (3.5 km) NE. Retrieved 2020/07/10 12:55 UTC (14 minutes ago):

KPGV 101255Z AUTO 36004KT 10SM SCT014 27/23 A2991 RMK AO2

Closest aviation forecast (TAF) to Vidant Health Heliport

Closest forecast is Pitt Greenville Airport, 1.9 nm (3.5 km) NE. Retrieved 2020/07/10 12:30 UTC (39 minutes ago):

TAF KPGV 101127Z 1012/1112 31004KT P6SM FEW010 FM101400 32006KT P6SM SCT040 FM102000 23006KT P6SM SCT050 AMD LTD TO CLD VIS AND WIND